Aviation Digital Data Service (ADDS)

Output produced by METARs form (2057 UTC 29 May 2017)
found at http://www.aviationweather.gov/adds/metars/
 
ZMUB 292030Z 00000MPS CAVOK 04/M08 Q1010 NOSIG RMK QFE650.6 44
TAF ZMUB 291640Z 2918/3024 VRB02MPS 9999 SCT033 TN03/2922Z TX25/3007Z 
     BECMG 3004/3006 33006MPS 
     BECMG 3010/3012 VRB02MPS